Time;durP1;ratioP1;P1;durP2;ratioP2;P2;SDS_P1;SDS_P2;PMS_P1;PMS_P2;Temp;Humidity;BMP_temperature;BMP_pressure;BME280_temperature;BME280_humidity;BME280_pressure;Samples;Min_cycle;Max_cycle;Signal;HPM_P1;HPM_P2
2023/04/08 00:01:37;;;;;;;;;7.50;6.50;;;;;11.38;55.96;101503.94;5076495;27;45767;-76
2023/04/08 00:04:03;;;;;;;;;5.25;5.00;;;;;11.32;56.03;101504.31;5076640;27;45653;-78
2023/04/08 00:06:28;;;;;;;;;7.00;6.00;;;;;11.29;55.97;101494.84;5076404;27;46640;-77
2023/04/08 00:12:15;;;;;;;;;9.50;6.00;;;;;11.27;56.05;101501.97;5077101;28;45647;-78
2023/04/08 00:14:41;;;;;;;;;6.75;6.00;;;;;11.27;56.05;101506.38;5085899;27;45739;-80
2023/04/08 00:17:06;;;;;;;;;7.50;6.50;;;;;11.22;56.42;101498.78;5096920;27;46231;-80
2023/04/08 00:19:32;;;;;;;;;8.25;6.25;;;;;11.20;56.34;101499.78;5097119;27;46321;-79
2023/04/08 00:21:58;;;;;;;;;11.25;7.00;;;;;11.19;56.50;101498.94;5097147;27;45509;-80
2023/04/08 00:27:45;;;;;;;;;9.75;7.00;;;;;11.17;56.69;101510.47;5096299;27;46145;-79
2023/04/08 00:30:10;;;;;;;;;6.00;4.00;;;;;11.09;56.72;101499.56;5096443;27;45855;-81
2023/04/08 00:32:36;;;;;;;;;5.00;5.00;;;;;11.09;56.82;101507.44;5095604;27;46012;-78
2023/04/08 00:35:02;;;;;;;;;7.00;6.00;;;;;11.07;56.87;101507.53;5095908;27;45663;-80
2023/04/08 00:37:27;;;;;;;;;5.50;4.50;;;;;11.04;56.90;101506.88;5096294;27;46635;-81
2023/04/08 00:43:15;;;;;;;;;6.25;5.50;;;;;11.02;56.78;101516.59;5096255;27;45608;-79
2023/04/08 00:45:41;;;;;;;;;4.25;2.25;;;;;10.97;56.88;101522.13;5096047;27;45677;-78
2023/04/08 00:48:06;;;;;;;;;6.00;6.00;;;;;10.94;56.82;101507.41;5096190;27;46713;-78
2023/04/08 00:50:32;;;;;;;;;4.00;4.00;;;;;10.95;56.91;101508.28;5096156;27;45844;-79
2023/04/08 00:52:57;;;;;;;;;3.00;3.00;;;;;10.94;56.95;101515.28;5096188;27;45608;-81
2023/04/08 00:58:47;;;;;;;;;6.25;5.75;;;;;10.90;57.05;101526.03;5095761;27;46111;-80
2023/04/08 01:01:53;;;;;;;;;5.00;5.00;;;;;10.85;57.07;101518.41;5077119;27;47137;-79
2023/04/08 01:04:46;;;;;;;;;7.00;6.00;;;;;10.81;57.05;101527.41;5094949;27;45758;-79
2023/04/08 01:07:43;;;;;;;;;3.00;3.00;;;;;10.78;57.20;101518.88;5094380;27;45971;-82
2023/04/08 01:10:37;;;;;;;;;6.00;5.25;;;;;10.74;57.08;101528.66;5084545;27;46910;-80
2023/04/08 01:13:07;;;;;;;;;5.00;3.00;;;;;10.73;56.99;101526.16;5091013;27;46260;-81
2023/04/08 01:15:43;;;;;;;;;5.75;5.00;;;;;10.65;57.07;101512.63;5093664;27;45664;-81
2023/04/08 01:18:17;;;;;;;;;3.50;3.00;;;;;10.66;57.30;101524.81;5076382;27;46015;-79
2023/04/08 01:20:46;;;;;;;;;3.50;3.50;;;;;10.43;57.17;101490.25;5094457;27;46675;-77
2023/04/08 01:23:21;;;;;;;;;6.00;3.00;;;;;10.61;56.87;101530.31;5094557;27;46149;-78
2023/04/08 01:25:50;;;;;;;;;5.00;4.00;;;;;10.49;57.27;101508.25;5094222;27;46032;-79
2023/04/08 01:28:17;;;;;;;;;6.00;4.50;;;;;10.51;56.96;101521.28;5094168;27;45765;-79
2023/04/08 01:30:44;;;;;;;;;2.00;1.00;;;;;10.53;57.32;101535.13;5094367;27;45603;-80
2023/04/08 01:33:12;;;;;;;;;8.75;6.00;;;;;10.50;57.33;101527.44;5094219;27;46125;-74
2023/04/08 01:35:38;;;;;;;;;5.50;4.75;;;;;10.47;57.38;101520.59;5093670;27;45803;-77
2023/04/08 01:38:10;;;;;;;;;5.00;4.75;;;;;10.45;57.51;101522.47;5094479;27;45717;-78
2023/04/08 01:40:38;;;;;;;;;4.50;3.00;;;;;10.43;57.47;101523.47;5076645;27;45623;-78
2023/04/08 01:43:06;;;;;;;;;5.50;3.75;;;;;10.36;57.24;101517.75;5094030;27;46187;-77
2023/04/08 01:45:32;;;;;;;;;5.50;4.25;;;;;10.39;57.56;101521.97;5093780;27;45602;-80
2023/04/08 01:48:00;;;;;;;;;6.75;6.00;;;;;10.33;57.70;101515.28;5094172;27;45846;-79
2023/04/08 01:50:26;;;;;;;;;6.00;4.00;;;;;10.36;57.87;101519.53;5093722;27;46585;-78
2023/04/08 01:52:53;;;;;;;;;5.75;5.75;;;;;10.30;57.82;101512.84;5093387;27;47272;-75
2023/04/08 01:55:20;;;;;;;;;5.75;5.00;;;;;10.34;57.97;101529.22;5093185;27;45659;-79
2023/04/08 01:57:50;;;;;;;;;6.00;5.50;;;;;10.30;57.98;101522.47;5093495;27;45735;-79
2023/04/08 02:00:20;;;;;;;;;6.00;4.25;;;;;10.27;58.21;101512.16;5093709;27;45616;-79
2023/04/08 02:02:47;;;;;;;;;6.00;5.00;;;;;10.26;58.16;101523.56;5094003;27;46354;-78
2023/04/08 02:05:13;;;;;;;;;7.25;6.00;;;;;10.25;58.04;101514.88;5093546;27;45618;-80
2023/04/08 02:07:38;;;;;;;;;5.50;5.00;;;;;10.19;58.15;101504.75;5094103;27;45544;-77
2023/04/08 02:10:04;;;;;;;;;6.00;5.00;;;;;10.15;58.19;101513.63;5093924;27;45646;-78
2023/04/08 02:12:32;;;;;;;;;6.75;4.50;;;;;10.15;58.32;101524.13;5095145;27;45729;-77
2023/04/08 02:14:57;;;;;;;;;5.00;5.00;;;;;10.12;58.50;101524.28;5093741;27;45772;-81
2023/04/08 02:17:39;;;;;;;;;6.50;5.75;;;;;10.06;58.26;101515.00;5093717;27;45647;-81
2023/04/08 02:20:10;;;;;;;;;5.75;4.00;;;;;10.05;58.48;101522.94;5093410;27;46596;-80
2023/04/08 02:22:44;;;;;;;;;7.25;6.00;;;;;10.02;58.25;101517.88;5093697;27;46548;-81
2023/04/08 02:25:15;;;;;;;;;4.00;2.50;;;;;9.97;58.54;101515.50;5092932;27;45867;-81
2023/04/08 02:27:42;;;;;;;;;5.75;5.25;;;;;9.91;58.34;101507.13;5093648;27;45802;-76
2023/04/08 02:30:10;;;;;;;;;6.25;5.50;;;;;9.88;58.63;101515.16;5093984;27;46967;-76
2023/04/08 02:32:36;;;;;;;;;7.00;5.50;;;;;9.90;58.79;101519.38;5093333;27;45707;-76
2023/04/08 02:35:04;;;;;;;;;5.50;5.00;;;;;9.88;58.61;101523.03;5074375;27;45815;-78
2023/04/08 02:37:30;;;;;;;;;6.00;5.00;;;;;9.86;58.53;101524.84;5093073;27;45744;-80
2023/04/08 02:39:56;;;;;;;;;4.75;4.00;;;;;9.81;58.65;101513.78;5093106;27;46800;-75
2023/04/08 02:42:25;;;;;;;;;5.75;3.00;;;;;9.71;58.94;101504.75;5093024;27;47064;-76
2023/04/08 02:44:50;;;;;;;;;6.00;5.00;;;;;9.78;58.64;101514.78;5057253;27;45965;-76
2023/04/08 02:47:16;;;;;;;;;5.50;5.00;;;;;9.72;58.38;101506.44;5074379;27;45577;-81
2023/04/08 02:49:41;;;;;;;;;10.00;7.00;;;;;9.78;58.98;101514.78;5093193;27;46440;-79
2023/04/08 02:52:06;;;;;;;;;4.50;3.50;;;;;9.75;58.79;101507.13;5093201;27;46192;-78
2023/04/08 02:54:32;;;;;;;;;6.00;6.00;;;;;9.79;59.06;101516.47;5074231;27;45653;-81
2023/04/08 03:00:19;;;;;;;;;7.50;6.75;;;;;9.73;59.05;101511.56;5093055;27;45623;-82
2023/04/08 03:02:47;;;;;;;;;6.00;6.00;;;;;9.68;59.03;101514.44;5074265;27;46261;-79
2023/04/08 03:05:15;;;;;;;;;5.00;5.00;;;;;9.69;58.95;101517.91;5074120;27;45893;-83
2023/04/08 03:07:51;;;;;;;;;7.25;6.50;;;;;9.54;59.34;101488.16;5093294;27;45846;-78
2023/04/08 03:10:20;;;;;;;;;7.25;7.00;;;;;9.64;59.16;101507.69;5092775;27;46655;-81
2023/04/08 03:16:09;;;;;;;;;7.75;6.00;;;;;9.71;59.40;101523.06;5069732;28;45878;-81
2023/04/08 03:18:38;;;;;;;;;11.25;7.00;;;;;9.68;59.42;101527.50;5072566;28;45538;-77
2023/04/08 03:21:03;;;;;;;;;8.75;7.00;;;;;9.66;59.29;101523.31;5072397;28;45607;-79
2023/04/08 03:23:29;;;;;;;;;8.75;6.50;;;;;9.66;59.33;101526.75;5072150;28;46342;-79
2023/04/08 03:25:54;;;;;;;;;7.00;6.25;;;;;9.61;59.40;101522.69;5071604;28;45758;-77
2023/04/08 03:28:26;;;;;;;;;6.50;5.50;;;;;9.58;59.27;101508.00;5091046;27;45613;-77
2023/04/08 03:30:51;;;;;;;;;10.00;6.25;;;;;9.62;59.73;101517.38;5092886;27;45738;-81
2023/04/08 03:33:19;;;;;;;;;11.00;8.25;;;;;9.60;59.54;101519.25;5092074;27;45565;-80
2023/04/08 03:35:45;;;;;;;;;13.00;11.00;;;;;9.52;59.34;101515.31;5092128;27;45831;-76
2023/04/08 03:38:10;;;;;;;;;10.00;8.00;;;;;9.54;59.49;101513.47;5092781;27;45817;-82
2023/04/08 03:40:36;;;;;;;;;11.50;7.75;;;;;9.52;59.48;101516.16;5092316;27;46281;-80
2023/04/08 03:46:36;;;;;;;;;9.75;6.75;;;;;9.38;59.46;101499.50;5091779;27;45550;-84
2023/04/08 03:49:01;;;;;;;;;7.75;5.75;;;;;9.43;59.54;101518.41;5092891;27;45957;-80
2023/04/08 03:51:27;;;;;;;;;7.50;7.50;;;;;9.46;59.22;101523.47;5092440;27;46276;-78
2023/04/08 03:53:52;;;;;;;;;9.75;8.50;;;;;9.35;59.53;101510.97;5073053;27;47271;-81
2023/04/08 03:56:24;;;;;;;;;10.00;7.00;;;;;9.39;59.36;101517.75;5072677;27;46098;-79
2023/04/08 03:58:49;;;;;;;;;8.50;6.75;;;;;9.47;59.72;101530.41;5092617;27;45693;-82
2023/04/08 04:01:18;;;;;;;;;8.50;6.00;;;;;9.46;59.40;101526.94;5073593;27;47333;-80
2023/04/08 04:03:43;;;;;;;;;7.00;6.50;;;;;9.45;59.72;101530.47;5092125;27;46324;-79
2023/04/08 04:06:09;;;;;;;;;11.25;7.25;;;;;9.41;59.48;101521.09;5091934;27;45540;-81
2023/04/08 04:08:34;;;;;;;;;12.50;9.50;;;;;9.32;59.51;101505.91;5093574;27;45823;-78
2023/04/08 04:11:00;;;;;;;;;8.75;7.25;;;;;9.34;59.53;101505.81;5096469;27;46323;-81
2023/04/08 04:16:47;;;;;;;;;7.00;6.50;;;;;9.40;59.62;101524.63;5066616;27;45877;-80
2023/04/08 04:19:12;;;;;;;;;11.50;8.25;;;;;9.41;59.79;101523.72;5054689;28;45761;-81
2023/04/08 04:21:37;;;;;;;;;9.75;7.75;;;;;9.39;59.81;101520.34;5054535;28;46851;-82
2023/04/08 04:24:03;;;;;;;;;10.00;6.50;;;;;9.36;59.54;101517.03;5054197;28;46250;-82
2023/04/08 04:26:28;;;;;;;;;8.25;7.00;;;;;9.37;59.63;101523.97;5053568;28;45649;-78
2023/04/08 04:32:20;;;;;;;;;9.00;8.50;;;;;9.36;59.49;101537.94;5054605;28;45641;-81
2023/04/08 04:34:45;;;;;;;;;9.25;7.00;;;;;9.32;59.93;101533.81;5054800;28;46197;-81
2023/04/08 04:37:11;;;;;;;;;8.50;7.00;;;;;9.26;59.68;101524.50;5054300;28;45545;-81
2023/04/08 04:39:36;;;;;;;;;10.00;9.00;;;;;9.25;59.82;101534.13;5054892;28;45798;-76
2023/04/08 04:42:02;;;;;;;;;11.00;9.25;;;;;9.25;59.66;101530.66;5054207;28;46784;-74
2023/04/08 04:44:27;;;;;;;;;7.25;6.50;;;;;9.26;59.77;101537.59;5052818;28;46263;-73
2023/04/08 04:47:01;;;;;;;;;11.25;10.50;;;;;9.26;59.78;101541.03;5052896;28;45567;-74
2023/04/08 04:50:36;;;;;;;;;7.50;7.00;;;;;9.29;59.59;101558.34;5052502;28;45522;-74
2023/04/08 04:52:58;;;;;;;;;8.50;6.75;;;;;9.24;59.64;101552.50;4969843;28;45932;-74
2023/04/08 04:55:23;;;;;;;;;7.75;6.25;;;;;9.26;59.67;101564.56;4988798;28;45756;-74
2023/04/08 04:58:35;;;;;;;;;7.00;6.75;;;;;9.23;59.54;101563.91;4990456;28;45844;-75
2023/04/08 05:01:06;;;;;;;;;9.50;9.00;;;;;9.12;59.86;101559.16;4991156;28;45774;-74
2023/04/08 05:03:32;;;;;;;;;10.00;8.75;;;;;9.11;59.57;101557.50;4990135;28;46436;-74
2023/04/08 05:05:57;;;;;;;;;10.00;8.75;;;;;9.16;59.74;101565.13;4990155;28;45702;-73
2023/04/08 05:08:23;;;;;;;;;9.75;9.75;;;;;9.07;59.80;101558.56;4990517;28;45804;-72
2023/04/08 05:10:54;;;;;;;;;7.25;7.00;;;;;9.14;59.80;101570.41;4990683;28;45693;-73
2023/04/08 05:13:20;;;;;;;;;10.25;10.00;;;;;9.08;59.86;101560.25;4989646;28;46625;-73
2023/04/08 05:15:45;;;;;;;;;11.00;10.00;;;;;9.11;59.86;101574.97;4991347;28;47363;-73
2023/04/08 05:18:13;;;;;;;;;8.75;6.50;;;;;9.06;60.01;101574.34;5009447;28;45734;-72
2023/04/08 05:20:38;;;;;;;;;10.75;10.00;;;;;9.06;60.02;101577.81;5009757;28;45774;-72
2023/04/08 05:23:03;;;;;;;;;12.75;9.00;;;;;9.08;60.07;101583.78;5009500;28;47485;-74
2023/04/08 05:25:29;;;;;;;;;11.25;9.00;;;;;9.06;59.79;101579.56;5009946;28;46502;-72
2023/04/08 05:27:55;;;;;;;;;11.25;10.00;;;;;9.00;60.28;101575.50;5009192;28;45850;-73
2023/04/08 05:30:21;;;;;;;;;9.00;7.75;;;;;9.03;59.98;101585.78;5072872;28;45646;-72
2023/04/08 05:32:46;;;;;;;;;15.50;13.25;;;;;9.04;59.77;101594.47;5072206;28;46665;-72
2023/04/08 05:35:11;;;;;;;;;12.25;10.00;;;;;9.04;60.01;101600.53;5071857;28;45621;-72
2023/04/08 05:37:37;;;;;;;;;11.50;10.25;;;;;9.03;59.85;101601.47;5072613;28;45662;-74
2023/04/08 05:40:02;;;;;;;;;15.00;11.75;;;;;9.04;60.00;101600.53;5072553;28;45866;-74
2023/04/08 05:42:28;;;;;;;;;9.75;9.50;;;;;9.02;60.18;101597.16;5072337;28;46841;-73
2023/04/08 05:48:15;;;;;;;;;14.75;12.25;;;;;9.02;59.90;101602.38;5072316;28;45872;-73
2023/04/08 05:50:41;;;;;;;;;13.00;9.25;;;;;9.04;60.18;101605.78;5072631;28;45795;-75
2023/04/08 05:53:09;;;;;;;;;15.00;14.00;;;;;9.03;60.00;101609.31;5071881;28;45885;-74
2023/04/08 05:55:35;;;;;;;;;14.75;14.75;;;;;9.03;60.02;101611.91;5053772;28;48334;-73
2023/04/08 05:58:00;;;;;;;;;13.00;11.00;;;;;9.04;60.22;101621.47;5072313;28;45892;-72
2023/04/08 06:00:26;;;;;;;;;12.50;7.25;;;;;9.01;60.21;101621.63;5072345;28;45677;-74
2023/04/08 06:02:51;;;;;;;;;12.50;11.00;;;;;8.99;60.16;101619.97;5071948;28;46507;-71
2023/04/08 06:05:17;;;;;;;;;11.75;10.25;;;;;9.01;60.00;101623.38;5071672;28;45581;-72
2023/04/08 06:07:46;;;;;;;;;16.50;14.25;;;;;9.02;60.26;101630.28;5071828;28;45966;-74
2023/04/08 06:10:11;;;;;;;;;12.25;10.75;;;;;9.02;59.94;101636.34;5066414;28;45888;-74
2023/04/08 06:12:39;;;;;;;;;15.00;12.75;;;;;8.98;60.08;101626.97;5071979;28;46507;-74
2023/04/08 06:18:26;;;;;;;;;12.25;10.25;;;;;8.99;59.80;101630.44;5078474;27;46434;-74
2023/04/08 06:20:55;;;;;;;;;17.50;14.75;;;;;9.01;60.15;101623.38;5092300;27;45786;-75
2023/04/08 06:23:43;;;;;;;;;11.00;10.25;;;;;9.01;59.83;101632.06;5092218;27;47238;-73
2023/04/08 06:26:08;;;;;;;;;15.00;12.00;;;;;9.03;59.97;101632.81;5091910;27;46735;-76
2023/04/08 06:28:34;;;;;;;;;19.50;15.00;;;;;9.04;59.92;101636.28;5073660;27;45723;-74
2023/04/08 06:30:59;;;;;;;;;16.25;14.50;;;;;9.05;60.01;101631.00;5072948;27;45860;-73
2023/04/08 06:33:25;;;;;;;;;17.00;14.00;;;;;9.06;60.20;101644.91;5074038;27;45689;-72
2023/04/08 06:35:59;;;;;;;;;18.75;16.25;;;;;9.06;59.99;101626.63;5091614;27;46052;-74
2023/04/08 06:38:25;;;;;;;;;18.50;18.50;;;;;9.08;60.12;101641.28;5074171;27;45908;-74
2023/04/08 06:50:38;;;;;;;;;18.00;16.00;;;;;9.15;59.92;101673.22;4930479;28;45881;-72
2023/04/08 06:53:42;;;;;;;;;19.25;15.50;;;;;9.18;59.61;101670.44;4915246;28;45947;-74
2023/04/08 07:09:46;;;;;;;;;21.50;17.50;;;;;9.18;59.50;101689.59;4800085;29;46086;-74
2023/04/08 07:19:59;;;;;;;;;17.50;15.75;;;;;9.17;59.59;101674.84;4675962;30;45917;-77
2023/04/08 07:26:05;;;;;;;;;16.00;12.75;;;;;9.25;59.51;101687.53;4715835;29;46220;-75
2023/04/08 07:28:31;;;;;;;;;15.25;12.00;;;;;9.28;59.26;101698.69;4747010;29;45554;-75
2023/04/08 07:34:25;;;;;;;;;18.75;16.25;;;;;9.37;59.11;101693.94;4794550;29;45680;-77
2023/04/08 07:36:50;;;;;;;;;24.25;17.25;;;;;9.36;59.20;101687.88;4824725;29;46164;-72
2023/04/08 07:39:16;;;;;;;;;15.00;14.50;;;;;9.40;59.25;101702.47;4837665;29;45825;-75
2023/04/08 07:42:02;;;;;;;;;18.50;15.00;;;;;9.41;59.33;101704.19;4838402;29;46107;-74
2023/04/08 07:45:18;;;;;;;;;15.75;15.00;;;;;9.31;59.28;101673.31;4822101;29;47566;-75
2023/04/08 07:47:54;;;;;;;;;21.00;15.50;;;;;9.46;59.44;101702.19;4803840;29;46293;-76
2023/04/08 07:50:20;;;;;;;;;21.50;18.50;;;;;9.49;59.35;101703.81;4822073;29;45823;-74
2023/04/08 07:52:48;;;;;;;;;19.50;17.00;;;;;9.52;59.15;101711.50;4876165;29;45824;-74
2023/04/08 07:55:41;;;;;;;;;24.50;16.75;;;;;9.56;59.11;101715.66;4907815;28;46735;-76
2023/04/08 07:58:06;;;;;;;;;19.50;15.00;;;;;9.58;59.08;101712.06;5011663;28;46413;-74
2023/04/08 08:01:48;;;;;;;;;;;;;;;;;;;;;
2023/04/08 08:04:14;;;;;;;;;15.50;15.00;;;;;9.68;58.93;101712.44;4973112;28;68060;-73
2023/04/08 08:06:39;;;;;;;;;19.75;16.00;;;;;9.72;59.27;101716.59;4973481;28;46509;-77
2023/04/08 08:09:49;;;;;;;;;16.50;16.00;;;;;9.75;58.85;101715.59;4958062;28;45841;-77
2023/04/08 08:12:17;;;;;;;;;24.00;17.00;;;;;9.62;58.92;101694.44;4918740;28;45613;-76
2023/04/08 08:18:05;;;;;;;;;19.50;13.25;;;;;9.74;59.07;101706.91;4916717;28;46131;-75
2023/04/08 08:20:36;;;;;;;;;22.25;20.00;;;;;9.75;59.14;101708.59;4917293;28;46241;-75
2023/04/08 08:23:02;;;;;;;;;19.25;15.00;;;;;9.83;58.78;101716.06;4954060;28;45885;-73
2023/04/08 08:25:27;;;;;;;;;16.50;15.00;;;;;9.81;59.25;101710.91;4953883;28;45579;-74
2023/04/08 08:27:54;;;;;;;;;19.50;18.50;;;;;9.80;59.10;101703.97;4953979;28;46248;-73
2023/04/08 08:33:41;;;;;;;;;17.75;16.25;;;;;9.99;58.81;101717.81;4953513;28;45644;-75
2023/04/08 08:36:06;;;;;;;;;18.75;16.00;;;;;10.04;58.62;101715.00;4937294;28;45597;-73
2023/04/08 08:38:32;;;;;;;;;24.50;18.75;;;;;10.10;58.75;101723.34;4988458;28;46779;-74
2023/04/08 08:40:58;;;;;;;;;21.25;18.00;;;;;10.17;58.67;101721.31;4992610;28;45580;-75
2023/04/08 08:43:25;;;;;;;;;19.00;15.50;;;;;10.23;58.92;101723.63;4992522;28;45561;-74
2023/04/08 08:49:12;;;;;;;;;20.50;16.75;;;;;10.36;58.29;101715.97;5047464;28;46134;-74
2023/04/08 08:51:39;;;;;;;;;16.75;13.25;;;;;10.42;58.40;101723.50;5075043;28;45624;-74
2023/04/08 08:54:05;;;;;;;;;21.75;17.75;;;;;10.45;58.20;101715.50;5074136;27;45953;-74
2023/04/08 08:56:33;;;;;;;;;22.75;20.00;;;;;10.51;58.08;101717.78;5074903;27;45690;-74
2023/04/08 08:58:58;;;;;;;;;25.75;17.25;;;;;10.55;57.67;101715.84;5074939;27;46117;-74
2023/04/08 09:04:59;;;;;;;;;18.00;16.25;;;;;10.60;57.60;101719.91;5074581;28;45811;-74
2023/04/08 09:07:26;;;;;;;;;18.75;18.00;;;;;10.66;57.74;101726.59;5074962;27;45581;-74
2023/04/08 09:09:53;;;;;;;;;15.50;15.00;;;;;10.72;57.72;101728.91;5074806;27;46756;-74
2023/04/08 09:12:19;;;;;;;;;10.50;8.50;;;;;10.78;57.68;101728.56;5074615;27;47166;-74
2023/04/08 09:14:45;;;;;;;;;21.50;16.50;;;;;10.84;57.15;101723.84;5073685;27;45737;-74
2023/04/08 09:20:32;;;;;;;;;22.25;18.00;;;;;10.96;56.87;101719.69;5072136;28;45982;-73
2023/04/08 09:23:01;;;;;;;;;19.25;15.50;;;;;11.01;56.94;101724.72;5074076;28;45929;-74
2023/04/08 09:25:31;;;;;;;;;17.50;14.00;;;;;11.06;56.69;101725.28;5074175;28;45753;-75
2023/04/08 09:27:57;;;;;;;;;13.25;12.50;;;;;11.11;56.80;101725.88;5074454;28;45540;-75
2023/04/08 09:30:24;;;;;;;;;19.00;17.75;;;;;11.13;56.67;101734.50;5074334;28;45506;-75
2023/04/08 09:36:11;;;;;;;;;15.50;14.00;;;;;11.22;56.59;101723.50;5074050;28;45909;-74
2023/04/08 09:38:37;;;;;;;;;20.50;13.25;;;;;11.26;56.35;101723.25;5074482;28;45452;-74
2023/04/08 09:41:07;;;;;;;;;24.75;16.75;;;;;11.33;56.34;101731.63;5073900;28;46436;-74
2023/04/08 09:43:39;;;;;;;;;23.25;18.25;;;;;11.36;56.08;101726.19;5074022;28;46325;-74
2023/04/08 09:46:07;;;;;;;;;14.75;14.00;;;;;11.38;55.97;101729.59;5073991;28;45549;-74
2023/04/08 09:48:40;;;;;;;;;18.50;14.00;;;;;11.39;55.92;101730.44;5074180;28;45688;-74
2023/04/08 09:51:07;;;;;;;;;20.50;16.25;;;;;11.38;55.84;101729.59;5073832;28;46557;-74
2023/04/08 09:53:40;;;;;;;;;16.00;14.75;;;;;11.46;55.88;101735.25;5073826;28;45624;-74
2023/04/08 09:56:11;;;;;;;;;17.75;13.50;;;;;11.49;55.71;101724.59;5073390;27;45831;-73
2023/04/08 09:58:58;;;;;;;;;21.00;15.00;;;;;11.58;55.54;101733.69;5093213;27;45919;-73
2023/04/08 10:01:38;;;;;;;;;19.75;17.75;;;;;11.60;55.36;101734.47;5092680;27;48232;-75
2023/04/08 10:04:11;;;;;;;;;18.00;16.25;;;;;11.62;55.28;101741.31;5093740;27;46284;-74
2023/04/08 10:06:38;;;;;;;;;14.00;12.25;;;;;11.65;55.26;101735.06;5094050;27;45591;-74
2023/04/08 10:09:05;;;;;;;;;17.75;14.75;;;;;11.67;55.29;101738.41;5094313;27;45550;-73
2023/04/08 10:11:30;;;;;;;;;18.25;16.25;;;;;11.68;55.20;101726.97;5094184;27;46571;-74
2023/04/08 10:13:56;;;;;;;;;15.75;13.25;;;;;11.73;55.05;101738.09;5074867;27;47647;-73
2023/04/08 10:16:26;;;;;;;;;20.25;16.75;;;;;11.81;55.13;101741.13;5094019;27;46213;-75
2023/04/08 10:18:56;;;;;;;;;19.25;14.50;;;;;11.86;54.80;101739.09;5093972;27;45859;-74
2023/04/08 10:21:49;;;;;;;;;16.00;14.00;;;;;11.92;54.76;101735.25;5092046;27;46344;-74
2023/04/08 10:24:15;;;;;;;;;17.25;15.75;;;;;11.96;54.55;101734.13;5093649;27;45560;-74
2023/04/08 10:26:42;;;;;;;;;17.00;13.00;;;;;12.01;54.53;101732.09;5093839;27;45615;-75
2023/04/08 10:29:26;;;;;;;;;15.50;13.50;;;;;12.06;54.27;101740.53;5093990;27;45491;-74
2023/04/08 10:31:52;;;;;;;;;14.00;11.50;;;;;12.09;54.29;101727.25;5093371;27;46682;-73
2023/04/08 10:34:23;;;;;;;;;15.75;15.25;;;;;12.12;53.98;101727.88;5093482;27;46162;-74
2023/04/08 10:36:49;;;;;;;;;16.00;11.75;;;;;12.14;54.03;101722.56;5093980;27;45608;-74
2023/04/08 10:39:15;;;;;;;;;14.00;13.00;;;;;12.18;53.69;101718.81;5093886;27;45689;-74
2023/04/08 10:41:46;;;;;;;;;13.00;12.25;;;;;12.22;53.80;101733.44;5075660;27;45586;-74
2023/04/08 10:44:24;;;;;;;;;16.00;11.75;;;;;12.22;53.80;101709.78;5093171;27;46012;-73
2023/04/08 10:46:51;;;;;;;;;15.00;13.00;;;;;12.23;53.42;101708.84;5093576;27;45793;-73
2023/04/08 10:50:45;;;;;;;;;14.50;10.75;;;;;12.24;53.67;101700.03;5093979;27;45474;-74
2023/04/08 10:52:53;;;;;;;;;13.25;11.50;;;;;12.30;53.37;101697.03;4999993;28;45800;-75
2023/04/08 10:55:26;;;;;;;;;17.25;15.50;;;;;12.32;53.28;101691.69;5010324;28;45686;-73
2023/04/08 10:57:52;;;;;;;;;12.75;9.00;;;;;12.34;53.02;101698.53;5010357;28;46066;-75
2023/04/08 11:00:37;;;;;;;;;14.75;12.50;;;;;12.36;53.18;101686.13;5010713;28;45720;-75
2023/04/08 11:03:44;;;;;;;;;15.75;11.50;;;;;12.30;53.04;101665.50;5010377;28;46810;-75
2023/04/08 11:07:36;;;;;;;;;13.00;12.00;;;;;12.34;53.07;101669.63;4947986;28;45899;-76
2023/04/08 11:09:39;;;;;;;;;13.50;12.50;;;;;12.30;52.38;101660.25;4937387;28;45997;-74
2023/04/08 11:15:40;;;;;;;;;13.00;10.25;;;;;12.54;52.16;101665.75;4874653;29;45789;-74
2023/04/08 11:18:07;;;;;;;;;12.00;10.25;;;;;12.61;52.30;101672.34;4876971;29;46341;-75
2023/04/08 11:20:36;;;;;;;;;14.25;10.25;;;;;12.67;52.05;101664.06;4878170;29;45933;-74
2023/04/08 11:23:02;;;;;;;;;17.00;13.00;;;;;12.77;52.04;101680.09;4878784;29;45690;-72
2023/04/08 11:25:28;;;;;;;;;15.00;14.00;;;;;12.75;52.11;101663.56;4878276;29;45733;-75
2023/04/08 11:27:54;;;;;;;;;14.75;11.25;;;;;12.83;51.63;101670.06;4878445;29;46241;-74
2023/04/08 11:30:20;;;;;;;;;13.00;10.25;;;;;12.80;51.91;101664.97;4950454;28;45745;-73
2023/04/08 11:33:43;;;;;;;;;12.25;11.00;;;;;12.89;51.14;101671.44;4954727;28;45783;-74
2023/04/08 11:40:21;;;;;;;;;9.00;8.00;;;;;12.95;51.02;101674.53;4859543;28;45835;-74
2023/04/08 11:42:52;;;;;;;;;15.50;11.50;;;;;12.82;50.82;101646.47;4841844;29;46017;-74
2023/04/08 11:45:28;;;;;;;;;12.25;11.00;;;;;12.97;51.09;101666.53;4839875;29;45699;-75
2023/04/08 11:47:54;;;;;;;;;11.00;10.50;;;;;12.92;50.73;101655.47;4841424;29;46830;-78
2023/04/08 11:54:25;;;;;;;;;10.50;9.50;;;;;13.08;50.10;101666.69;4838330;29;45931;-79
2023/04/08 12:06:42;;;;;;;;;10.25;5.00;;;;;13.20;49.53;101641.41;5028849;22;45628;-79
2023/04/08 12:09:51;;;;;;;;;;;;;;;;;;;;;
2023/04/08 12:13:30;;;;;;;;;;;;;;;;;;;;;
2023/04/08 12:16:02;;;;;;;;;9.75;8.75;;;;;13.23;49.29;101620.13;4911478;28;46119;-81
2023/04/08 12:22:13;;;;;;;;;13.00;9.00;;;;;13.43;48.59;101633.69;4913313;28;45659;-81
2023/04/08 12:24:39;;;;;;;;;9.50;8.00;;;;;13.41;48.80;101622.41;4911422;28;45852;-82
2023/04/08 12:27:05;;;;;;;;;16.00;12.25;;;;;13.57;48.24;101643.28;4912155;28;45780;-80
2023/04/08 12:29:31;;;;;;;;;12.00;9.00;;;;;13.63;48.66;101648.13;4908196;28;45898;-82
2023/04/08 12:31:56;;;;;;;;;9.75;9.75;;;;;13.64;47.95;101635.81;4908613;28;46019;-83
2023/04/08 12:34:21;;;;;;;;;12.25;9.25;;;;;13.72;47.54;101655.41;4917637;28;46447;-78
2023/04/08 12:36:48;;;;;;;;;9.75;9.50;;;;;13.69;47.83;101642.47;4906004;28;45798;-80
2023/04/08 12:39:13;;;;;;;;;9.00;8.00;;;;;13.74;48.16;101634.25;4903965;28;45916;-88
2023/04/08 12:41:38;;;;;;;;;14.00;11.75;;;;;13.80;47.85;101634.69;4906142;28;45978;-81
2023/04/08 12:44:04;;;;;;;;;14.75;12.25;;;;;13.86;47.61;101636.06;4911735;28;46152;-82
2023/04/08 12:46:29;;;;;;;;;10.00;9.00;;;;;13.87;47.54;101627.22;4905548;28;46400;-83
2023/04/08 12:48:55;;;;;;;;;16.25;15.25;;;;;13.94;47.25;101633.72;4908066;28;46177;-83
2023/04/08 12:51:20;;;;;;;;;11.75;10.25;;;;;14.05;47.10;101640.88;4932498;28;46211;-81
2023/04/08 12:53:45;;;;;;;;;11.00;8.75;;;;;14.07;46.86;101633.72;5000933;28;46465;-78
2023/04/08 12:56:11;;;;;;;;;16.00;12.75;;;;;14.15;46.96;101628.75;5004231;28;45837;-85
2023/04/08 12:58:36;;;;;;;;;8.00;8.00;;;;;14.17;46.79;101632.97;5010174;28;45689;-83
2023/04/08 13:01:01;;;;;;;;;10.00;9.50;;;;;14.16;46.94;101618.13;4999427;28;46127;-81
2023/04/08 13:03:29;;;;;;;;;15.75;11.50;;;;;14.30;46.78;101625.06;4997054;28;46669;-75
2023/04/08 13:05:55;;;;;;;;;15.75;13.00;;;;;14.32;46.56;101617.88;4994821;28;47165;-77
2023/04/08 13:08:20;;;;;;;;;10.25;9.75;;;;;14.38;46.31;101621.91;5011878;28;45720;-79
2023/04/08 13:10:47;;;;;;;;;12.00;11.25;;;;;14.43;46.63;101623.28;5011437;28;45860;-82
2023/04/08 13:13:13;;;;;;;;;11.00;8.75;;;;;14.44;46.30;101624.97;4998406;28;45678;-80
2023/04/08 13:15:38;;;;;;;;;11.00;11.00;;;;;14.45;46.32;101620.53;5010642;28;45842;-83
2023/04/08 13:18:04;;;;;;;;;13.25;10.00;;;;;14.49;46.61;101614.94;5010566;28;45717;-78
2023/04/08 13:20:29;;;;;;;;;11.25;9.50;;;;;14.57;46.48;101614.38;5002130;28;45833;-79
2023/04/08 13:22:55;;;;;;;;;11.00;10.50;;;;;14.59;45.95;101608.03;5000749;28;47367;-77
2023/04/08 13:25:20;;;;;;;;;9.25;9.00;;;;;14.66;45.72;101611.94;5007184;28;47002;-79
2023/04/08 13:27:45;;;;;;;;;10.00;9.00;;;;;14.70;45.23;101612.53;4986268;28;45941;-77
2023/04/08 13:30:11;;;;;;;;;8.50;7.75;;;;;14.74;45.25;101624.53;5010894;28;45693;-77
2023/04/08 13:32:37;;;;;;;;;7.00;7.00;;;;;14.77;45.15;101616.44;5006025;28;46989;-78
2023/04/08 13:35:02;;;;;;;;;10.00;9.00;;;;;14.76;44.64;101614.75;4986707;28;46673;-76
2023/04/08 13:37:27;;;;;;;;;10.00;9.00;;;;;14.80;45.50;101616.19;5005830;28;45775;-77
2023/04/08 13:39:53;;;;;;;;;8.25;7.00;;;;;14.79;45.24;101618.97;5009337;28;45820;-78